• Join FlightAware (Why Join?)
  • Login
  • US Flag 
06:27PM EDT


 

Airport Tracker/Info


-or-


 

Live Flight TrackerFlight Track Log ✈ FLG3432 ✈ 26-Jun-2013 ✈ KSLC - KDFW

Flight Track Log - Related Links

Times and Time Zones

All times are in EDT time to prevent confusion due to time zone crossing. See the FLG3432 flight status page for this flight to view local times or setup timezone preferences in your user account.

Time Position Orientation Groundspeed Altitude Reporting Facility
EDT Latitude Longitude Course Direction KTS MPH feet Rate Location/Type
07:25PM 40.8131 -111.9800 163° South 181 208 4,800  Level Salt Lake Center
07:26PM 40.8678 -111.9842 357° North 198 228 6,200 1,320 Climbing Salt Lake Center
07:27PM 40.9064 -111.9903 353° North 221 254 7,000 1,500 Climbing Salt Lake Center
07:28PM 41.1283 -111.8130 108° East  Level FlightAware Approximate
07:28PM 40.9822 -112.0000 354° North 268 308 8,700  Level Salt Lake Center
07:29PM 41.0423 -111.7331 163° South  Level FlightAware Approximate
07:29PM 41.0611 -111.9981 North 287 330 10,800  Level Salt Lake Center
07:30PM 40.9322 -111.6877 163° South  Level FlightAware Approximate
07:30PM 41.0725 -111.9017 81° East 302 348 12,700  Level Salt Lake Center
07:31PM 40.9967 -111.8322 145° Southeast 298 343 14,300 1,200 Climbing Salt Lake Center
07:32PM 40.9175 -111.7647 147° Southeast 337 388 15,300 1,140 Climbing Salt Lake Center
07:33PM 40.8311 -111.6903 147° Southeast 368 423 16,700 1,260 Climbing Salt Lake Center
07:34PM 40.7500 -111.5992 140° Southeast 395 455 17,900 1,260 Climbing Salt Lake Center
07:35PM 40.7089 -111.4592 111° Southeast 412 474 19,400 1,440 Climbing Salt Lake Center
07:36PM 40.6669 -111.3153 111° Southeast 422 486 20,900 1,500 Climbing Salt Lake Center
07:37PM 40.6164 -111.1417 111° Southeast 423 487 22,500 1,320 Climbing Salt Lake Center
07:38PM 40.5725 -110.9922 111° Southeast 435 501 23,700 1,080 Climbing Salt Lake Center
07:39PM 40.5308 -110.8375 109° East 448 516 24,800 1,020 Climbing Salt Lake Center
07:40PM 40.4964 -110.6764 106° East 458 527 25,900 960 Climbing Salt Lake Center
07:41PM 40.4569 -110.4950 106° East 470 541 26,800 900 Climbing Salt Lake Center
07:42PM 40.4219 -110.3347 106° East 478 550 27,800 960 Climbing Salt Lake Center
07:43PM 40.3797 -110.1456 106° East 485 558 28,900 1,020 Climbing Salt Lake Center
07:44PM 40.3433 -109.9825 106° East 487 560 30,000 1,020 Climbing Salt Lake Center
07:45PM 40.2808 -109.8064 115° Southeast 483 556 31,100 960 Climbing Salt Lake Center
07:46PM 40.1989 -109.6781 130° Southeast 480 552 32,100 1,020 Climbing Salt Lake Center
07:47PM 40.1181 -109.5508 130° Southeast 477 549 33,300 1,080 Climbing Salt Lake Center
07:48PM 40.0253 -109.4056 130° Southeast 468 539 34,400 900 Climbing Salt Lake Center
07:49PM 39.9711 -109.3222 130° Southeast 466 536 34,900 300 Climbing Denver Center
07:50PM 39.8919 -109.1972 130° Southeast 467 537 35,000  Climbing Denver Center
07:51PM 39.7964 -109.0511 130° Southeast 474 545 35,000  Level Denver Center
07:52PM 39.7150 -108.9253 130° Southeast 475 547 35,000  Level Denver Center
07:53PM 39.6144 -108.7706 130° Southeast 477 549 35,000  Level Denver Center
07:54PM 39.5550 -108.6789 130° Southeast 485 558 35,000  Level Denver Center
07:55PM 39.4481 -108.5139 130° Southeast 471 542 35,000  Level Denver Center
07:56PM 39.3706 -108.3494 121° Southeast 480 552 35,000  Level Denver Center
07:57PM 39.3058 -108.2103 121° Southeast 470 541 35,000  Level Denver Center
07:58PM 39.2294 -108.0464 121° Southeast 476 548 35,000  Level Denver Center
07:59PM 39.1647 -107.9069 121° Southeast 475 547 35,000  Level Denver Center
08:00PM 39.0883 -107.7464 121° Southeast 473 544 35,000  Level Denver Center
08:01PM 39.0239 -107.6056 120° Southeast 475 547 35,000  Level Denver Center
08:02PM 38.9472 -107.4439 121° Southeast 474 545 35,000  Level Denver Center
08:03PM 38.8831 -107.3056 121° Southeast 472 543 35,000  Level Denver Center
08:04PM 38.8172 -107.1672 121° Southeast 474 545 35,000  Level Denver Center
08:05PM 38.7514 -107.0281 121° Southeast 471 542 35,000  Level Denver Center
08:07PM 38.6683 -106.8586 122° Southeast 471 542 35,000  Level Denver Center
08:08PM 38.5875 -106.7286 128° Southeast 468 539 35,000  Level Denver Center
08:09PM 38.5067 -106.5975 128° Southeast 470 541 35,000  Level Denver Center
08:10PM 38.4258 -106.4678 128° Southeast 467 537 35,000  Level Denver Center
08:11PM 38.3450 -106.3394 129° Southeast 463 533 35,000  Level Denver Center
08:12PM 38.2653 -106.2089 128° Southeast 466 536 35,000  Level Denver Center
08:13PM 38.1706 -106.0586 129° Southeast 459 528 35,000  Level Denver Center
08:14PM 38.0928 -105.9367 129° Southeast 461 531 35,000  Level Denver Center
08:15PM 38.0042 -105.7950 128° Southeast 460 529 35,000  Level Denver Center
08:16PM 37.9269 -105.6756 129° Southeast 458 527 35,000  Level Denver Center
08:17PM 37.8381 -105.5339 128° Southeast 459 528 35,000  Level Denver Center
08:18PM 37.7603 -105.4144 129° Southeast 459 528 35,000  Level Denver Center
08:19PM 37.6711 -105.2758 129° Southeast 458 527 35,000  Level Denver Center
08:20PM 37.5942 -105.1553 129° Southeast 460 529 35,000  Level Denver Center
08:21PM 37.5047 -105.0183 129° Southeast 456 525 35,000  Level Denver Center
08:22PM 37.4258 -104.8981 130° Southeast 463 533 35,000  Level Denver Center
08:23PM 37.3347 -104.7581 129° Southeast 463 533 35,000  Level Denver Center
08:24PM 37.2564 -104.6392 130° Southeast 464 534 35,000  Level Denver Center
08:25PM 37.1650 -104.4981 129° Southeast 468 539 35,000  Level Denver Center
08:26PM 37.1006 -104.3667 122° Southeast 464 534 35,000  Level Denver Center
08:27PM 37.0461 -104.2575 122° Southeast 465 535 35,000  Level Albuquerque Center
08:28PM 36.9700 -104.1047 122° Southeast 465 535 35,000  Level Albuquerque Center
08:29PM 36.9056 -103.9758 122° Southeast 462 532 35,000  Level Albuquerque Center
08:30PM 36.8297 -103.8253 122° Southeast 460 529 35,000  Level Albuquerque Center
08:31PM 36.7650 -103.6981 122° Southeast 458 527 35,000  Level Albuquerque Center
08:32PM 36.7000 -103.5686 122° Southeast 458 527 35,000  Level Albuquerque Center
08:33PM 36.6292 -103.4283 122° Southeast 457 526 35,000  Level Albuquerque Center
08:34PM 36.5603 -103.2928 122° Southeast 457 526 35,000  Level Albuquerque Center
08:35PM 36.4914 -103.1589 123° Southeast 455 524 35,000  Level Albuquerque Center
08:36PM 36.4231 -103.0250 122° Southeast 454 522 35,000  Level Albuquerque Center
08:37PM 36.3539 -102.8908 123° Southeast 456 525 35,000  Level Albuquerque Center
08:38PM 36.2864 -102.7606 123° Southeast 454 522 35,000  Level Albuquerque Center
08:39PM 36.2050 -102.6028 123° Southeast 454 522 35,000  Level Albuquerque Center
08:40PM 36.1361 -102.4706 123° Southeast 455 524 35,000  Level Albuquerque Center
08:41PM 36.0672 -102.3406 123° Southeast 454 522 35,000  Level Albuquerque Center
08:42PM 35.9992 -102.2092 123° Southeast 454 522 35,000  Level Albuquerque Center
08:43PM 35.9294 -102.0778 123° Southeast 455 524 35,000  Level Albuquerque Center
08:44PM 35.8608 -101.9475 123° Southeast 454 522 35,000  Level Albuquerque Center
08:45PM 35.7917 -101.8161 123° Southeast 455 524 35,000  Level Albuquerque Center
08:46PM 35.7222 -101.6847 123° Southeast 456 525 35,000  Level Albuquerque Center
08:47PM 35.6519 -101.5539 123° Southeast 456 525 35,000  Level Albuquerque Center
08:48PM 35.5803 -101.4228 124° Southeast 458 527 35,000  Level Albuquerque Center
08:49PM 35.5103 -101.2917 123° Southeast 456 525 35,000  Level Albuquerque Center
08:51PM 35.4244 -101.1344 124° Southeast 458 527 35,000  Level Albuquerque Center
08:52PM 35.3528 -101.0036 124° Southeast 459 528 35,000  Level Albuquerque Center
08:53PM 35.2814 -100.8739 124° Southeast 459 528 35,000  Level Albuquerque Center
08:54PM 35.2114 -100.7436 123° Southeast 458 527 35,000  Level Albuquerque Center
08:55PM 35.1392 -100.6150 124° Southeast 458 527 35,000  Level Albuquerque Center
08:56PM 35.0675 -100.4853 124° Southeast 460 529 35,000  Level Albuquerque Center
08:57PM 34.9886 -100.3442 124° Southeast 460 529 35,000  Level Albuquerque Center
08:58PM 34.9181 -100.2158 124° Southeast 459 528 35,000  Level Albuquerque Center
08:59PM 34.8458 -100.0864 124° Southeast 460 529 35,000  Level Albuquerque Center
09:00PM 34.7739 -99.9575 124° Southeast 461 531 35,000  Level Albuquerque Center
09:00PM 34.7108 -99.8536 126° Southeast 459 528 35,000  Level Fort Worth Center
09:01PM 34.6447 -99.7106 119° Southeast 464 534 35,000  Level Fort Worth Center
09:02PM 34.5906 -99.5778 116° Southeast 458 527 35,000  Level Fort Worth Center
09:03PM 34.5325 -99.4403 117° Southeast 451 519 35,000 -120 Level Fort Worth Center
09:04PM 34.4719 -99.3053 119° Southeast 451 519 34,800 -600 Descending Fort Worth Center
09:05PM 34.4133 -99.1706 118° Southeast 456 525 33,800 -960 Descending Fort Worth Center
09:06PM 34.3608 -99.0539 119° Southeast 446 513 32,900 -960 Descending Fort Worth Center
09:07PM 34.3061 -98.9269 118° Southeast 439 505 31,900 -1,020 Descending Fort Worth Center
09:08PM 34.2450 -98.7903 118° Southeast 439 505 30,900 -1,020 Descending Fort Worth Center
09:09PM 34.1881 -98.6589 118° Southeast 445 512 29,900 -1,080 Descending Fort Worth Center
09:10PM 34.1078 -98.5297 127° Southeast 459 528 28,800 -1,620 Descending Fort Worth Center
09:11PM 34.0233 -98.3883 126° Southeast 466 536 26,700 -2,100 Descending Fort Worth Center
09:12PM 33.9533 -98.2672 125° Southeast 461 531 24,600 -2,100 Descending Fort Worth Center
09:13PM 33.8811 -98.1514 127° Southeast 447 514 22,500 -2,100 Descending Fort Worth Center
09:14PM 33.8169 -98.0511 128° Southeast 436 502 20,500 -2,040 Descending Fort Worth Center
09:15PM 33.7486 -97.9406 127° Southeast 422 486 18,500 -2,280 Descending Fort Worth Center
09:16PM 33.6758 -97.8253 127° Southeast 409 471 16,000 -2,280 Descending Fort Worth Center
09:17PM 33.6117 -97.7228 127° Southeast 404 465 14,000 -2,400 Descending Fort Worth Center
09:18PM 33.5469 -97.6228 128° Southeast 383 441 11,300 -1,800 Descending Fort Worth Center
09:19PM 33.4908 -97.5356 128° Southeast 349 402 10,500 -1,140 Descending Fort Worth Center
09:20PM 33.4367 -97.4558 129° Southeast 319 367 9,100 -780 Descending Fort Worth Center
09:21PM 33.3739 -97.3936 140° Southeast 291 335 9,000 -300 Descending Fort Worth Center
09:22PM 33.3217 -97.3189 130° Southeast 291 335 8,600 -780 Descending Fort Worth Center
09:23PM 33.2925 -97.2394 114° Southeast 291 335 7,500 -900 Descending Fort Worth Center
09:24PM 33.2569 -97.1450 114° Southeast 286 329 6,800 -900 Descending Fort Worth Center
09:25PM 33.2294 -97.0683 113° Southeast 281 323 5,700 -1,320 Descending Fort Worth Center
09:26PM 33.1625 -97.0264 152° Southeast 252 290 4,200 -1,380 Descending Fort Worth Center
09:27PM 33.1000 -97.0267 180° South 246 283 3,000 -720 Descending Fort Worth Center
09:28PM 33.0331 -97.0294 182° South 231 266 2,800 -240 Descending Fort Worth Center